Time;durP1;ratioP1;P1;durP2;ratioP2;P2;SDS_P1;SDS_P2;PMS_P1;PMS_P2;Temp;Humidity;BMP_temperature;BMP_pressure;BME280_temperature;BME280_humidity;BME280_pressure;Samples;Min_cycle;Max_cycle;Signal;HPM_P1;HPM_P2
2022/07/05 00:01:50;;;;;;;11.85;8.07;;;21.40;99.90;;;;;;5056672;28;20124;-73
2022/07/05 00:04:17;;;;;;;10.25;8.25;;;21.30;99.90;;;;;;5056007;28;20099;-73
2022/07/05 00:09:26;;;;;;;12.73;8.23;;;21.30;99.90;;;;;;5053444;28;20045;-73
2022/07/05 00:11:53;;;;;;;10.27;7.32;;;21.30;99.90;;;;;;5054999;28;20369;-73
2022/07/05 00:14:22;;;;;;;13.55;10.07;;;21.20;99.90;;;;;;5054903;28;20049;-73
2022/07/05 00:16:50;;;;;;;13.02;9.98;;;21.20;99.90;;;;;;5054407;28;20053;-74
2022/07/05 00:19:17;;;;;;;11.35;8.30;;;21.20;99.90;;;;;;5058830;28;20141;-74
2022/07/05 00:21:45;;;;;;;17.25;11.73;;;21.20;99.90;;;;;;5075565;28;20041;-73
2022/07/05 00:24:13;;;;;;;9.77;8.02;;;21.20;99.90;;;;;;5077443;28;20041;-72
2022/07/05 00:26:40;;;;;;;9.25;7.95;;;21.10;99.90;;;;;;5075861;28;20063;-73
2022/07/05 00:29:08;;;;;;;9.15;8.25;;;21.10;99.90;;;;;;5078302;28;20048;-74
2022/07/05 00:31:37;;;;;;;12.75;8.07;;;21.10;99.90;;;;;;5057753;28;20107;-74
2022/07/05 00:34:04;;;;;;;9.75;7.80;;;21.00;99.90;;;;;;5054302;28;20091;-74
2022/07/05 00:36:32;;;;;;;9.27;8.10;;;21.00;99.90;;;;;;5049939;28;20045;-74
2022/07/05 00:38:59;;;;;;;12.75;8.18;;;20.90;99.90;;;;;;5059826;28;20040;-74
2022/07/05 00:41:26;;;;;;;11.57;8.45;;;20.90;99.90;;;;;;5056308;28;20053;-74
2022/07/05 00:43:55;;;;;;;13.25;8.45;;;20.90;99.90;;;;;;5054503;28;20041;-73
2022/07/05 00:46:22;;;;;;;15.73;7.75;;;20.90;99.90;;;;;;5055811;28;20045;-74
2022/07/05 00:48:51;;;;;;;10.93;8.30;;;20.80;99.90;;;;;;5054969;28;20056;-73
2022/07/05 00:51:20;;;;;;;9.30;8.05;;;20.80;99.90;;;;;;5053870;28;20106;-74
2022/07/05 00:53:47;;;;;;;11.40;7.80;;;20.80;99.90;;;;;;5054722;28;20040;-73
2022/07/05 00:56:15;;;;;;;9.63;7.72;;;20.80;99.90;;;;;;5054405;28;20106;-76
2022/07/05 00:58:43;;;;;;;12.80;8.10;;;20.80;99.90;;;;;;5054548;28;20499;-74
2022/07/05 01:01:11;;;;;;;13.38;8.35;;;20.80;99.90;;;;;;5055011;28;20407;-74
2022/07/05 01:03:38;;;;;;;10.52;8.35;;;20.80;99.90;;;;;;5053528;28;20064;-75
2022/07/05 01:06:10;;;;;;;11.43;8.25;;;20.70;99.90;;;;;;5053556;28;20037;-74
2022/07/05 01:08:39;;;;;;;11.00;8.20;;;20.60;99.90;;;;;;5052901;28;20052;-74
2022/07/05 01:11:08;;;;;;;11.13;8.43;;;20.60;99.90;;;;;;5055102;28;20087;-73
2022/07/05 01:13:37;;;;;;;13.02;8.18;;;20.50;99.90;;;;;;5054603;28;20423;-73
2022/07/05 01:16:05;;;;;;;11.82;8.75;;;20.50;99.90;;;;;;5054850;28;20472;-74
2022/07/05 01:18:33;;;;;;;11.18;8.73;;;20.50;99.90;;;;;;5053854;28;20492;-73
2022/07/05 01:21:01;;;;;;;9.27;8.38;;;20.50;99.90;;;;;;5051268;28;20102;-73
2022/07/05 01:23:32;;;;;;;11.15;8.05;;;20.50;99.90;;;;;;5053355;28;20072;-73
2022/07/05 01:26:02;;;;;;;11.43;8.60;;;20.50;99.90;;;;;;5054671;28;20044;-76
2022/07/05 01:28:29;;;;;;;10.40;8.55;;;20.50;99.90;;;;;;5059834;28;20043;-74
2022/07/05 01:30:57;;;;;;;11.85;8.68;;;20.40;99.90;;;;;;5063097;28;20087;-74
2022/07/05 01:33:28;;;;;;;12.63;8.93;;;20.40;99.90;;;;;;5054088;28;20503;-73
2022/07/05 01:35:56;;;;;;;9.77;8.57;;;20.40;99.90;;;;;;5053841;28;20033;-73
2022/07/05 01:38:25;;;;;;;12.57;8.50;;;20.40;99.90;;;;;;5053284;28;20141;-76
2022/07/05 01:40:54;;;;;;;10.10;8.68;;;20.40;99.90;;;;;;5052687;28;20102;-76
2022/07/05 01:43:22;;;;;;;11.88;8.50;;;20.40;99.90;;;;;;5054052;28;20063;-74
2022/07/05 01:45:50;;;;;;;14.00;8.60;;;20.40;99.90;;;;;;5054416;28;20065;-75
2022/07/05 01:48:21;;;;;;;12.32;8.52;;;20.40;99.90;;;;;;5052901;28;20416;-76
2022/07/05 01:50:52;;;;;;;10.27;9.15;;;20.40;99.90;;;;;;5053391;28;20106;-74
2022/07/05 01:53:21;;;;;;;12.25;8.88;;;20.30;99.90;;;;;;5052491;28;20132;-74
2022/07/05 01:55:49;;;;;;;10.50;8.77;;;20.30;99.90;;;;;;5053337;28;20055;-75
2022/07/05 01:58:18;;;;;;;10.43;9.18;;;20.40;99.90;;;;;;5053288;28;20049;-73
2022/07/05 02:00:47;;;;;;;13.55;9.13;;;20.30;99.90;;;;;;5052456;28;20048;-74
2022/07/05 02:03:14;;;;;;;10.75;9.07;;;20.30;99.90;;;;;;5053613;28;20053;-74
2022/07/05 02:05:42;;;;;;;12.48;9.85;;;20.30;99.90;;;;;;5053903;28;20037;-73
2022/07/05 02:08:14;;;;;;;12.20;9.45;;;20.20;99.90;;;;;;5052702;28;20492;-74
2022/07/05 02:10:43;;;;;;;11.50;9.43;;;20.20;99.90;;;;;;5052702;28;20103;-74
2022/07/05 02:13:10;;;;;;;12.75;10.05;;;20.10;99.90;;;;;;5052954;28;20037;-74
2022/07/05 02:15:42;;;;;;;12.68;9.35;;;20.10;99.90;;;;;;5053417;28;20067;-75
2022/07/05 02:18:10;;;;;;;12.20;9.75;;;20.10;99.90;;;;;;5052558;28;20057;-73
2022/07/05 02:20:41;;;;;;;11.88;9.68;;;20.10;99.90;;;;;;5049286;28;20056;-74
2022/07/05 02:23:10;;;;;;;12.32;9.55;;;20.10;99.90;;;;;;5059606;28;20037;-73
2022/07/05 02:25:38;;;;;;;14.27;9.75;;;20.00;99.90;;;;;;5059882;28;20484;-73
2022/07/05 02:28:13;;;;;;;13.02;9.50;;;20.00;99.90;;;;;;5059719;28;20127;-75
2022/07/05 02:30:43;;;;;;;11.07;9.80;;;20.00;99.90;;;;;;5059681;28;20051;-73
2022/07/05 02:33:10;;;;;;;13.20;9.88;;;20.00;99.90;;;;;;5059144;28;20061;-73
2022/07/05 02:35:38;;;;;;;11.57;9.95;;;20.10;99.90;;;;;;5051989;28;20041;-73
2022/07/05 02:38:05;;;;;;;12.90;9.75;;;20.10;99.90;;;;;;5052018;28;20057;-73
2022/07/05 02:40:32;;;;;;;14.93;11.50;;;20.00;99.90;;;;;;5052165;28;20049;-73
2022/07/05 02:43:02;;;;;;;18.45;10.70;;;19.90;99.90;;;;;;5052334;28;20045;-73
2022/07/05 02:45:30;;;;;;;13.63;9.82;;;19.80;99.90;;;;;;5052566;28;20411;-74
2022/07/05 02:48:01;;;;;;;12.60;10.02;;;19.80;99.90;;;;;;5052429;28;20140;-74
2022/07/05 02:50:32;;;;;;;11.25;10.02;;;19.80;99.90;;;;;;5053097;28;20399;-74
2022/07/05 02:52:59;;;;;;;11.77;10.35;;;19.70;99.90;;;;;;5062006;28;20128;-73
2022/07/05 02:55:27;;;;;;;13.15;9.38;;;19.70;99.90;;;;;;5054030;28;20148;-73
2022/07/05 02:57:54;;;;;;;14.10;10.63;;;19.70;99.90;;;;;;5053112;28;20068;-73
2022/07/05 03:00:22;;;;;;;13.02;10.20;;;19.80;99.90;;;;;;5055360;28;20057;-73
2022/07/05 03:02:50;;;;;;;13.43;10.18;;;19.90;99.90;;;;;;5053220;28;20102;-72
2022/07/05 03:05:19;;;;;;;13.75;10.27;;;19.90;99.90;;;;;;5052421;28;20463;-75
2022/07/05 03:08:00;;;;;;;14.23;10.27;;;20.00;99.90;;;;;;5068649;28;20389;-72
2022/07/05 03:10:30;;;;;;;13.10;10.13;;;20.00;99.90;;;;;;5053627;28;20120;-72
2022/07/05 03:12:58;;;;;;;14.02;10.35;;;20.10;99.90;;;;;;5051766;28;20140;-73
2022/07/05 03:15:26;;;;;;;13.95;10.65;;;20.00;99.90;;;;;;5052083;28;20529;-73
2022/07/05 03:17:54;;;;;;;14.32;9.65;;;20.00;99.90;;;;;;5043866;28;20046;-73
2022/07/05 03:20:25;;;;;;;10.73;9.63;;;20.00;99.90;;;;;;5039733;28;20063;-73
2022/07/05 03:22:53;;;;;;;13.75;10.48;;;20.00;99.90;;;;;;5051524;28;20044;-72
2022/07/05 03:25:25;;;;;;;15.80;10.35;;;20.00;99.90;;;;;;5054875;28;20056;-74
2022/07/05 03:27:54;;;;;;;14.77;10.85;;;20.00;99.90;;;;;;5056032;28;20052;-72
2022/07/05 03:30:22;;;;;;;14.88;10.65;;;20.10;99.90;;;;;;5053200;28;20033;-73
2022/07/05 03:32:50;;;;;;;12.93;11.38;;;20.10;99.90;;;;;;5055139;28;20193;-72
2022/07/05 03:35:19;;;;;;;14.30;10.32;;;20.10;99.90;;;;;;5055753;28;20041;-73
2022/07/05 03:37:50;;;;;;;16.60;11.35;;;20.20;99.90;;;;;;5056626;28;20048;-73
2022/07/05 03:40:20;;;;;;;13.73;10.55;;;20.30;99.90;;;;;;5055117;28;20053;-73
2022/07/05 03:42:47;;;;;;;14.80;10.80;;;20.30;99.90;;;;;;5055003;28;20052;-73
2022/07/05 03:45:15;;;;;;;13.73;11.65;;;20.30;99.90;;;;;;5055977;28;20067;-73
2022/07/05 03:47:42;;;;;;;15.30;12.20;;;20.40;99.90;;;;;;5056275;28;20083;-74
2022/07/05 03:50:12;;;;;;;17.45;11.70;;;20.40;99.90;;;;;;5055985;28;20140;-73
2022/07/05 03:52:41;;;;;;;13.95;11.70;;;20.50;99.90;;;;;;5058263;28;20102;-73
2022/07/05 03:55:11;;;;;;;15.15;11.35;;;20.50;99.90;;;;;;5065960;28;20053;-72
2022/07/05 03:57:39;;;;;;;17.23;11.02;;;20.60;99.90;;;;;;5077513;28;20033;-72
2022/07/05 04:00:08;;;;;;;15.52;11.05;;;20.80;99.90;;;;;;5073969;28;20045;-73
2022/07/05 04:02:41;;;;;;;12.35;10.68;;;21.10;99.90;;;;;;5056322;28;20083;-73
2022/07/05 04:05:11;;;;;;;12.77;10.57;;;21.70;99.90;;;;;;5054915;28;20049;-74
2022/07/05 04:07:49;;;;;;;13.05;10.45;;;22.20;99.90;;;;;;5054807;28;20045;-73
2022/07/05 04:10:19;;;;;;;11.15;9.95;;;22.90;99.90;;;;;;5054633;28;20049;-74
2022/07/05 04:12:47;;;;;;;13.35;10.07;;;23.50;99.90;;;;;;5054133;28;20571;-74
2022/07/05 04:15:15;;;;;;;16.33;9.98;;;23.90;9.20;;;;;;5062580;28;20045;-73
2022/07/05 04:17:50;;;;;;;12.27;9.75;;;24.30;94.60;;;;;;5054416;28;20504;-74
2022/07/05 04:20:18;;;;;;;14.68;9.50;;;24.70;1.00;;;;;;5049489;28;20411;-73
2022/07/05 04:22:46;;;;;;;11.10;9.65;;;24.80;99.90;;;;;;5062486;28;20705;-75
2022/07/05 04:25:18;;;;;;;13.00;10.48;;;24.30;1.00;;;;;;5063096;28;20488;-75
2022/07/05 04:27:52;;;;;;;26.42;12.63;;;23.60;1.00;;;;;;5048858;28;20366;-74
2022/07/05 04:30:21;;;;;;;19.38;11.80;;;23.20;99.90;;;;;;5055270;28;20041;-74
2022/07/05 04:32:49;;;;;;;15.98;10.90;;;23.00;99.90;;;;;;5056024;28;20069;-74
2022/07/05 04:35:17;;;;;;;17.77;10.63;;;23.00;99.90;;;;;;5068346;28;20051;-74
2022/07/05 04:37:47;;;;;;;23.50;11.32;;;23.00;99.90;;;;;;5055060;28;20052;-74
2022/07/05 04:40:16;;;;;;;20.35;10.93;;;23.30;99.90;;;;;;5061097;28;20053;-74
2022/07/05 04:42:43;;;;;;;14.63;10.50;;;23.80;99.90;;;;;;5057607;28;20155;-74
2022/07/05 04:45:14;;;;;;;22.85;10.10;;;24.30;99.90;;;;;;5055272;28;20056;-75
2022/07/05 04:47:41;;;;;;;14.00;10.45;;;25.00;99.90;;;;;;5055222;28;20033;-74
2022/07/05 04:50:10;;;;;;;41.47;13.02;;;25.50;99.90;;;;;;5057679;28;20095;-75
2022/07/05 04:52:37;;;;;;;20.67;11.20;;;25.90;99.90;;;;;;5056137;28;20052;-74
2022/07/05 04:55:05;;;;;;;27.75;12.10;;;26.10;1.00;;;;;;5057867;28;20041;-74
2022/07/05 04:57:38;;;;;;;29.40;14.90;;;26.60;1.00;;;;;;5056570;28;20048;-75
2022/07/05 05:00:07;;;;;;;24.85;16.92;;;26.90;1.00;;;;;;5053757;28;20145;-74
2022/07/05 05:02:36;;;;;;;12.15;10.18;;;27.10;1.00;;;;;;5055613;28;20048;-74
2022/07/05 05:05:04;;;;;;;19.33;10.43;;;27.10;1.00;;;;;;5056149;28;20051;-75
2022/07/05 05:07:34;;;;;;;25.25;13.07;;;27.30;1.00;;;;;;5055834;28;20048;-75
2022/07/05 05:10:01;;;;;;;25.92;12.07;;;27.90;1.00;;;;;;5055577;28;20045;-74
2022/07/05 05:12:29;;;;;;;30.08;12.80;;;28.50;59.50;;;;;;5055160;28;20049;-74
2022/07/05 05:14:56;;;;;;;17.50;11.85;;;29.40;99.90;;;;;;5059530;28;20063;-74
2022/07/05 05:17:23;;;;;;;19.75;11.43;;;30.10;99.90;;;;;;5058597;28;20044;-75
2022/07/05 05:19:52;;;;;;;30.50;12.07;;;30.50;99.90;;;;;;5056066;28;20068;-75
2022/07/05 05:22:19;;;;;;;17.23;12.07;;;30.90;99.90;;;;;;5055435;28;20049;-75
2022/07/05 05:24:47;;;;;;;21.92;11.55;;;30.90;99.90;;;;;;5054143;28;20045;-74
2022/07/05 05:27:14;;;;;;;16.55;11.77;;;31.10;99.90;;;;;;5050931;28;20106;-74
2022/07/05 05:29:41;;;;;;;16.92;12.15;;;31.20;99.90;;;;;;5054146;28;20041;-74
2022/07/05 05:32:09;;;;;;;14.55;12.85;;;31.80;99.90;;;;;;5063168;28;20071;-73
2022/07/05 05:34:37;;;;;;;18.63;14.20;;;32.30;99.90;;;;;;5061426;28;20569;-75
2022/07/05 05:37:05;;;;;;;17.33;13.52;;;32.60;99.90;;;;;;5061211;28;20099;-75
2022/07/05 05:39:33;;;;;;;21.80;13.77;;;33.00;99.90;;;;;;5042101;28;20399;-75
2022/07/05 05:42:00;;;;;;;22.48;16.17;;;33.30;99.90;;;;;;5049535;28;20519;-74
2022/07/05 05:44:27;;;;;;;25.23;16.38;;;33.20;99.90;;;;;;5052734;28;20064;-74
2022/07/05 05:46:55;;;;;;;25.35;14.57;;;33.30;99.90;;;;;;5054278;28;20076;-74
2022/07/05 05:49:22;;;;;;;25.30;16.95;;;33.20;99.90;;;;;;5055034;28;20488;-74
2022/07/05 05:51:49;;;;;;;21.92;17.27;;;33.20;99.90;;;;;;5052534;28;20098;-75
2022/07/05 05:54:18;;;;;;;24.92;16.17;;;33.10;99.90;;;;;;5053736;28;20087;-75
2022/07/05 05:56:45;;;;;;;19.60;14.10;;;33.30;99.90;;;;;;5052925;28;20100;-75
2022/07/05 05:59:12;;;;;;;20.13;13.88;;;33.30;99.90;;;;;;5052603;28;20047;-74
2022/07/05 06:01:40;;;;;;;17.38;13.20;;;33.30;99.90;;;;;;5053531;28;20492;-74
2022/07/05 06:04:07;;;;;;;19.60;13.88;;;33.20;99.90;;;;;;5052380;28;20385;-72
2022/07/05 06:06:34;;;;;;;24.48;17.02;;;33.40;99.90;;;;;;5053237;28;20073;-74
2022/07/05 06:09:02;;;;;;;21.85;16.83;;;33.70;99.90;;;;;;5053818;28;20037;-75
2022/07/05 06:11:30;;;;;;;20.90;18.65;;;33.50;99.90;;;;;;5052338;28;20445;-75
2022/07/05 06:13:58;;;;;;;22.83;18.23;;;33.30;99.90;;;;;;5050962;28;20096;-74
2022/07/05 06:16:26;;;;;;;21.67;18.27;;;33.10;99.90;;;;;;5053390;28;20053;-74
2022/07/05 06:18:53;;;;;;;24.38;18.63;;;33.10;99.90;;;;;;5054319;28;20064;-74
2022/07/05 06:21:20;;;;;;;22.73;17.60;;;32.70;99.90;;;;;;5050325;28;20072;-73
2022/07/05 06:23:48;;;;;;;23.90;16.85;;;32.10;99.90;;;;;;5053815;28;20045;-74
2022/07/05 06:26:15;;;;;;;24.35;17.15;;;31.30;99.90;;;;;;5040525;28;20048;-75
2022/07/05 06:28:44;;;;;;;20.98;16.95;;;30.70;99.90;;;;;;5054312;28;20111;-76
2022/07/05 06:31:11;;;;;;;31.17;18.83;;;30.10;99.90;;;;;;5052771;28;20037;-76
2022/07/05 06:33:38;;;;;;;24.85;19.40;;;29.70;99.90;;;;;;5054428;28;20045;-74
2022/07/05 06:36:06;;;;;;;27.02;19.52;;;29.40;99.90;;;;;;5049948;28;20115;-75
2022/07/05 06:38:33;;;;;;;20.45;17.25;;;29.10;99.90;;;;;;5053872;28;20037;-75
2022/07/05 06:41:00;;;;;;;25.02;17.48;;;28.90;99.90;;;;;;5054697;28;20037;-74
2022/07/05 06:43:28;;;;;;;25.08;20.30;;;28.50;99.90;;;;;;5057592;28;20052;-75
2022/07/05 06:46:05;;;;;;;24.13;19.80;;;28.30;99.90;;;;;;5056006;28;20060;-75
2022/07/05 06:48:32;;;;;;;22.27;17.38;;;28.10;99.90;;;;;;5057635;28;20045;-74
2022/07/05 06:50:59;;;;;;;19.17;17.17;;;28.00;99.90;;;;;;5056406;28;20052;-76
2022/07/05 06:53:27;;;;;;;23.38;16.90;;;28.00;99.90;;;;;;5042750;28;20045;-75
2022/07/05 06:55:54;;;;;;;26.00;19.00;;;27.90;99.90;;;;;;5036975;28;20068;-75
2022/07/05 06:58:21;;;;;;;19.13;15.60;;;27.70;99.90;;;;;;5046302;28;20090;-73
2022/07/05 07:00:49;;;;;;;26.52;16.50;;;27.70;99.90;;;;;;5057907;28;20040;-73
2022/07/05 07:03:18;;;;;;;18.42;15.75;;;27.50;99.90;;;;;;5058351;28;20056;-72
2022/07/05 07:05:45;;;;;;;22.08;16.75;;;27.30;99.90;;;;;;5058705;28;20510;-72
2022/07/05 07:10:59;;;;;;;25.67;21.77;;;27.60;99.90;;;;;;5059823;28;20099;-73
2022/07/05 07:13:27;;;;;;;24.58;18.10;;;27.90;99.90;;;;;;5070135;28;20067;-73
2022/07/05 07:15:54;;;;;;;21.88;18.00;;;28.00;99.90;;;;;;5075416;28;20044;-74
2022/07/05 07:18:23;;;;;;;22.05;18.10;;;28.00;99.90;;;;;;5072708;28;20053;-73
2022/07/05 07:20:50;;;;;;;22.35;19.20;;;28.10;99.90;;;;;;5064874;28;20112;-71
2022/07/05 07:23:17;;;;;;;25.77;22.08;;;28.10;99.90;;;;;;5066548;28;20104;-73
2022/07/05 07:25:44;;;;;;;40.92;23.13;;;28.40;99.90;;;;;;5059854;28;20044;-73
2022/07/05 07:28:12;;;;;;;30.42;23.35;;;28.90;99.90;;;;;;5058105;28;20093;-73
2022/07/05 07:30:39;;;;;;;32.45;24.50;;;29.20;99.90;;;;;;5058571;28;20097;-72
2022/07/05 07:33:06;;;;;;;29.17;23.45;;;29.10;99.90;;;;;;5059173;28;20052;-73
2022/07/05 07:35:35;;;;;;;34.20;27.23;;;28.90;99.90;;;;;;5056453;28;20049;-73
2022/07/05 07:38:02;;;;;;;32.58;26.35;;;29.20;99.90;;;;;;5055851;28;20095;-74
2022/07/05 07:40:30;;;;;;;29.77;23.63;;;29.60;99.90;;;;;;5056061;28;20083;-73
2022/07/05 07:42:58;;;;;;;32.38;25.20;;;29.60;99.90;;;;;;5062136;28;20040;-74
2022/07/05 07:45:27;;;;;;;33.08;26.05;;;30.10;99.90;;;;;;5060727;28;20057;-73
2022/07/05 07:47:55;;;;;;;28.30;22.95;;;30.50;99.90;;;;;;5057927;28;20041;-73
2022/07/05 07:50:22;;;;;;;28.27;22.38;;;30.30;99.90;;;;;;5056912;28;20045;-74
2022/07/05 07:52:51;;;;;;;27.95;24.83;;;30.10;99.90;;;;;;5058099;28;20049;-73
2022/07/05 07:55:18;;;;;;;26.27;22.75;;;30.30;99.90;;;;;;5057664;28;20068;-74
2022/07/05 07:57:45;;;;;;;28.02;24.90;;;30.40;99.90;;;;;;5057116;28;20064;-74
2022/07/05 08:00:14;;;;;;;40.80;24.55;;;30.70;99.90;;;;;;5057231;28;20197;-73
2022/07/05 08:02:41;;;;;;;40.72;24.83;;;31.00;99.90;;;;;;5055474;28;20501;-73
2022/07/05 08:05:09;;;;;;;50.97;30.05;;;31.50;99.90;;;;;;5056922;28;20037;-72
2022/07/05 08:07:37;;;;;;;39.83;28.92;;;31.80;99.90;;;;;;5056756;28;20400;-72
2022/07/05 08:10:06;;;;;;;34.28;27.90;;;31.70;99.90;;;;;;5055399;28;20049;-74
2022/07/05 08:12:34;;;;;;;40.72;31.10;;;31.70;99.90;;;;;;5056872;28;20492;-73
2022/07/05 08:15:01;;;;;;;38.85;27.15;;;31.80;99.90;;;;;;5055730;28;20072;-73
2022/07/05 08:17:29;;;;;;;34.72;25.80;;;31.60;99.90;;;;;;5058169;28;20037;-72
2022/07/05 08:22:41;;;;;;;28.30;23.42;;;31.50;99.90;;;;;;5054909;28;20096;-73
2022/07/05 08:25:10;;;;;;;45.20;25.75;;;31.30;99.90;;;;;;5056667;28;20144;-73
2022/07/05 08:27:37;;;;;;;34.20;22.65;;;31.30;99.90;;;;;;5056372;28;20049;-72
2022/07/05 08:30:06;;;;;;;30.38;19.45;;;31.50;99.90;;;;;;5056517;28;20041;-74
2022/07/05 08:32:33;;;;;;;27.95;19.48;;;31.60;99.90;;;;;;5056545;28;20052;-73
2022/07/05 08:35:00;;;;;;;22.35;16.27;;;31.20;99.90;;;;;;5057361;28;20053;-74
2022/07/05 08:37:28;;;;;;;29.95;19.20;;;31.10;99.90;;;;;;5055609;28;20192;-73
2022/07/05 08:39:55;;;;;;;30.90;20.48;;;31.30;99.90;;;;;;5056209;28;20071;-73
2022/07/05 08:42:25;;;;;;;32.90;22.00;;;31.60;99.90;;;;;;5056292;28;20496;-74
2022/07/05 08:44:56;;;;;;;26.50;20.58;;;31.80;99.90;;;;;;5057573;28;20048;-73
2022/07/05 08:47:24;;;;;;;30.58;20.73;;;31.80;99.90;;;;;;5055220;28;20114;-73
2022/07/05 08:49:53;;;;;;;27.65;22.35;;;31.60;99.90;;;;;;5057722;28;20401;-74
2022/07/05 08:52:21;;;;;;;35.10;26.90;;;31.70;99.90;;;;;;5055137;28;20579;-73
2022/07/05 08:54:50;;;;;;;34.58;25.13;;;31.80;99.90;;;;;;5056041;28;20049;-73
2022/07/05 08:57:17;;;;;;;30.17;22.25;;;32.20;99.90;;;;;;5055869;28;20051;-75
2022/07/05 08:59:46;;;;;;;24.15;20.98;;;32.40;99.90;;;;;;5055824;28;20037;-74
2022/07/05 09:02:17;;;;;;;33.92;22.25;;;32.40;99.90;;;;;;5054077;28;20049;-74
2022/07/05 09:04:46;;;;;;;25.35;22.73;;;32.40;99.90;;;;;;5062207;28;20052;-74
2022/07/05 09:07:16;;;;;;;33.53;22.95;;;32.40;99.90;;;;;;5059960;28;20118;-74
2022/07/05 09:09:44;;;;;;;25.27;22.65;;;32.30;99.90;;;;;;5035184;28;20037;-74
2022/07/05 09:12:14;;;;;;;27.60;22.77;;;32.50;99.90;;;;;;5035546;28;20045;-73
2022/07/05 09:14:41;;;;;;;24.67;21.27;;;32.60;99.90;;;;;;5034179;28;20393;-74
2022/07/05 09:17:11;;;;;;;33.42;22.52;;;32.60;99.90;;;;;;5037592;28;20033;-74
2022/07/05 09:19:38;;;;;;;29.15;23.10;;;32.70;99.90;;;;;;5041315;28;20044;-73
2022/07/05 09:22:08;;;;;;;32.80;29.20;;;32.90;99.90;;;;;;5056128;28;20102;-74
2022/07/05 09:24:44;;;;;;;34.78;26.55;;;32.80;99.90;;;;;;5055965;28;20124;-73
2022/07/05 09:27:13;;;;;;;25.35;22.13;;;33.00;99.90;;;;;;5059188;28;20559;-74
2022/07/05 09:29:53;;;;;;;25.73;22.90;;;33.00;99.90;;;;;;5054501;28;20110;-74
2022/07/05 09:32:26;;;;;;;23.98;21.48;;;32.80;99.90;;;;;;5050111;28;20045;-74
2022/07/05 09:34:53;;;;;;;18.30;16.25;;;32.90;99.90;;;;;;5057948;28;20121;-74
2022/07/05 09:37:20;;;;;;;18.48;15.45;;;32.90;99.90;;;;;;5055927;28;20049;-74
2022/07/05 09:39:48;;;;;;;21.15;16.13;;;32.90;99.90;;;;;;5045250;28;20574;-73
2022/07/05 09:42:20;;;;;;;21.13;15.60;;;32.80;99.90;;;;;;5057633;28;20041;-73
2022/07/05 09:44:49;;;;;;;22.92;16.25;;;32.60;99.90;;;;;;5062853;28;20063;-72
2022/07/05 09:47:17;;;;;;;18.63;16.55;;;32.70;99.90;;;;;;5071420;28;20025;-73
2022/07/05 09:49:48;;;;;;;22.48;16.48;;;32.90;99.90;;;;;;5072581;28;20025;-74
2022/07/05 09:52:28;;;;;;;18.02;15.90;;;33.00;99.90;;;;;;5071501;28;20112;-72
2022/07/05 09:55:06;;;;;;;21.65;19.45;;;32.90;99.90;;;;;;5057800;28;20048;-72
2022/07/05 09:57:34;;;;;;;23.63;21.45;;;33.00;99.90;;;;;;5035029;28;20045;-73
2022/07/05 10:00:03;;;;;;;24.88;21.33;;;33.00;99.90;;;;;;5035218;28;20049;-72
2022/07/05 10:02:38;;;;;;;20.25;18.02;;;33.00;99.90;;;;;;5034863;28;20068;-73
2022/07/05 10:05:14;;;;;;;23.52;21.10;;;32.60;99.90;;;;;;5034893;28;20038;-72
2022/07/05 10:07:44;;;;;;;31.42;26.50;;;32.30;99.90;;;;;;5050717;28;20068;-74
2022/07/05 10:10:13;;;;;;;25.50;23.05;;;32.30;99.90;;;;;;5059811;28;20556;-73
2022/07/05 10:12:41;;;;;;;35.58;25.65;;;32.40;99.90;;;;;;5055094;28;20040;-72
2022/07/05 10:15:11;;;;;;;24.08;21.55;;;32.40;99.90;;;;;;5055403;28;20043;-74
2022/07/05 10:17:41;;;;;;;26.42;23.58;;;32.50;99.90;;;;;;5055515;28;20037;-73
2022/07/05 10:20:17;;;;;;;24.58;21.88;;;32.50;99.90;;;;;;5056952;28;20147;-73
2022/07/05 10:22:45;;;;;;;25.45;20.98;;;32.70;99.90;;;;;;5064006;28;20109;-74
2022/07/05 10:25:12;;;;;;;24.50;22.20;;;32.50;99.90;;;;;;5061489;28;20047;-73
2022/07/05 10:27:40;;;;;;;29.40;24.58;;;32.60;99.90;;;;;;5055443;28;20049;-74
2022/07/05 10:30:10;;;;;;;25.08;21.80;;;32.90;99.90;;;;;;5056604;28;20087;-73
2022/07/05 10:32:40;;;;;;;26.40;21.77;;;33.00;99.90;;;;;;5054650;28;20045;-73
2022/07/05 10:35:09;;;;;;;23.88;20.42;;;33.30;99.90;;;;;;5056273;28;20451;-74
2022/07/05 10:37:37;;;;;;;23.38;20.95;;;33.50;99.90;;;;;;5052909;28;20480;-72
2022/07/05 10:40:06;;;;;;;23.70;21.27;;;33.60;99.90;;;;;;5056697;28;20503;-73
2022/07/05 10:42:38;;;;;;;24.75;22.45;;;33.40;99.90;;;;;;5060477;28;20455;-73
2022/07/05 10:45:28;;;;;;;27.30;24.35;;;33.50;99.90;;;;;;5059591;28;20388;-73
2022/07/05 10:48:15;;;;;;;30.75;27.92;;;33.50;99.90;;;;;;5059135;28;20048;-73
2022/07/05 10:50:45;;;;;;;26.85;24.05;;;33.70;99.90;;;;;;5039031;28;20056;-73
2022/07/05 10:53:13;;;;;;;27.88;24.63;;;33.50;99.90;;;;;;5038199;28;20072;-73
2022/07/05 10:55:55;;;;;;;26.10;23.60;;;33.20;99.90;;;;;;5038717;28;20073;-74
2022/07/05 10:58:27;;;;;;;24.65;21.60;;;32.80;99.90;;;;;;5037718;28;20444;-76
2022/07/05 11:01:32;;;;;;;27.02;23.80;;;32.50;99.90;;;;;;5039776;28;20052;-74
2022/07/05 11:04:14;;;;;;;25.58;23.27;;;32.70;99.90;;;;;;5055323;28;20500;-73
2022/07/05 11:06:43;;;;;;;30.40;24.95;;;32.80;99.90;;;;;;5038571;28;20508;-72
2022/07/05 11:09:19;;;;;;;25.90;21.95;;;33.00;99.90;;;;;;5057035;28;20101;-73
2022/07/05 11:12:01;;;;;;;23.80;21.38;;;33.10;99.90;;;;;;5059277;28;20059;-73
2022/07/05 11:14:34;;;;;;;21.42;19.40;;;33.20;99.90;;;;;;5059644;28;20048;-73
2022/07/05 11:17:25;;;;;;;24.33;20.23;;;33.30;99.90;;;;;;5058079;28;20051;-73
2022/07/05 11:20:13;;;;;;;20.13;17.77;;;33.40;99.90;;;;;;5057879;28;20087;-73
2022/07/05 11:22:42;;;;;;;16.92;15.13;;;33.10;99.90;;;;;;5055659;28;20099;-73
2022/07/05 11:25:12;;;;;;;17.00;15.20;;;32.30;99.90;;;;;;5056349;28;20492;-73
2022/07/05 11:28:02;;;;;;;17.00;15.30;;;32.30;99.90;;;;;;5056089;28;20048;-73
2022/07/05 11:30:29;;;;;;;17.27;14.30;;;32.10;99.90;;;;;;5058477;28;20124;-73
2022/07/05 11:33:00;;;;;;;16.50;13.05;;;32.20;99.90;;;;;;5058980;28;20045;-72
2022/07/05 11:35:33;;;;;;;13.60;12.30;;;32.30;99.90;;;;;;5058773;28;20049;-73
2022/07/05 11:38:03;;;;;;;13.50;12.10;;;31.90;99.90;;;;;;5059564;28;20057;-74
2022/07/05 11:40:33;;;;;;;16.48;11.57;;;31.60;99.90;;;;;;5057372;28;20510;-73
2022/07/05 11:43:02;;;;;;;21.33;14.35;;;31.50;99.90;;;;;;5056279;28;20136;-73
2022/07/05 11:45:31;;;;;;;18.35;12.20;;;31.90;99.90;;;;;;5055494;28;20049;-74
2022/07/05 11:47:59;;;;;;;14.23;11.30;;;32.10;99.90;;;;;;5057125;28;20049;-73
2022/07/05 11:50:28;;;;;;;15.95;10.88;;;32.40;99.90;;;;;;5056703;28;20047;-72
2022/07/05 11:52:56;;;;;;;13.18;11.05;;;32.60;99.90;;;;;;5057786;28;20052;-74
2022/07/05 11:55:26;;;;;;;13.23;10.48;;;32.40;99.90;;;;;;5064008;28;20045;-73
2022/07/05 11:57:56;;;;;;;11.10;10.07;;;32.10;99.90;;;;;;5061019;28;20131;-72
2022/07/05 12:00:32;;;;;;;10.80;9.38;;;31.90;99.90;;;;;;5059110;28;20041;-73
2022/07/05 12:03:00;;;;;;;14.90;9.82;;;31.70;99.90;;;;;;5058187;28;20064;-73
2022/07/05 12:05:32;;;;;;;13.38;10.27;;;31.90;99.90;;;;;;5056853;28;20388;-73
2022/07/05 12:08:00;;;;;;;10.57;9.13;;;32.10;99.90;;;;;;5058271;28;20060;-73
2022/07/05 12:13:13;;;;;;;10.73;9.43;;;31.50;99.90;;;;;;5055806;28;20051;-74
2022/07/05 12:15:41;;;;;;;12.15;10.20;;;31.30;99.90;;;;;;5056282;28;20492;-73
2022/07/05 12:18:11;;;;;;;8.32;7.53;;;31.40;99.90;;;;;;5057486;28;20056;-73
2022/07/05 12:20:40;;;;;;;10.05;8.02;;;31.40;99.90;;;;;;5055451;28;20057;-74
2022/07/05 12:23:08;;;;;;;9.85;7.53;;;31.40;99.90;;;;;;5057510;28;20053;-74
2022/07/05 12:25:36;;;;;;;9.25;7.20;;;31.40;99.90;;;;;;5055485;28;20049;-73
2022/07/05 12:28:10;;;;;;;15.88;11.98;;;31.30;99.90;;;;;;5057126;28;20068;-73
2022/07/05 12:30:39;;;;;;;12.82;8.95;;;31.10;99.90;;;;;;5060829;28;20045;-74
2022/07/05 12:33:09;;;;;;;14.55;8.10;;;30.90;99.90;;;;;;5067911;28;20055;-74
2022/07/05 12:35:39;;;;;;;10.63;8.57;;;30.80;99.90;;;;;;5074793;28;20041;-73
2022/07/05 12:38:08;;;;;;;11.52;8.02;;;30.80;99.90;;;;;;5074536;28;20079;-75
2022/07/05 12:40:38;;;;;;;10.93;7.80;;;30.60;99.90;;;;;;5071944;28;20037;-74
2022/07/05 12:43:10;;;;;;;9.40;7.65;;;30.40;99.90;;;;;;5068293;28;20048;-73
2022/07/05 12:45:40;;;;;;;9.00;7.85;;;30.20;99.90;;;;;;5073571;28;20176;-73
2022/07/05 12:48:09;;;;;;;12.90;7.40;;;30.00;99.90;;;;;;5069595;28;20075;-71
2022/07/05 12:50:48;;;;;;;11.63;8.18;;;30.10;99.90;;;;;;5060557;28;20107;-71
2022/07/05 12:58:50;;;;;;;8.63;6.72;;;30.20;99.90;;;;;;5058242;28;20037;-74